Time;durP1;ratioP1;P1;durP2;ratioP2;P2;SDS_P1;SDS_P2;PMS_P1;PMS_P2;Temp;Humidity;BMP_temperature;BMP_pressure;BME280_temperature;BME280_humidity;BME280_pressure;Samples;Min_cycle;Max_cycle;Signal;HPM_P1;HPM_P2
2021/12/13 00:01:50;;;;;;;;;;;;;;;2.45;86.78;100900.52;1724185;83;20210;-65
2021/12/13 00:04:28;;;;;;;;;;;;;;;2.41;86.49;100895.02;1716123;83;20184;-66
2021/12/13 00:07:03;;;;;;;;;;;;;;;2.42;86.59;100891.33;1714355;84;20572;-64
2021/12/13 00:09:35;;;;;;;;;;;;;;;2.41;86.53;100883.34;1714335;83;20169;-64
2021/12/13 00:12:04;;;;;;;;;;;;;;;2.43;86.71;100885.42;1712118;83;20180;-62
2021/12/13 00:14:40;;;;;;;;;;;;;;;2.45;86.63;100888.84;1714401;83;20208;-63
2021/12/13 00:17:13;;;;;;;;;;;;;;;2.43;86.69;100889.48;1719670;83;20207;-65
2021/12/13 00:19:49;;;;;;;;;;;;;;;2.42;86.63;100891.82;1728103;83;20513;-63
2021/12/13 00:22:23;;;;;;;;;;;;;;;2.40;86.52;100884.33;1726654;83;20242;-63
2021/12/13 00:24:51;;;;;;;;;;;;;;;2.41;86.76;100882.84;1713393;83;20517;-66
2021/12/13 00:27:23;;;;;;;;;;;;;;;2.43;86.56;100874.60;1713426;84;20219;-64
2021/12/13 00:30:13;;;;;;;;;;;;;;;2.39;86.40;100879.91;1713276;84;20191;-64
2021/12/13 00:33:06;;;;;;;;;;;;;;;2.36;86.41;100874.28;1704765;84;20157;-66
2021/12/13 00:35:39;;;;;;;;;;;;;;;2.35;86.56;100871.70;1699247;84;20220;-64
2021/12/13 00:38:07;;;;;;;;;;;;;;;2.35;86.59;100871.22;1699218;84;20284;-63
2021/12/13 00:40:46;;;;;;;;;;;;;;;2.33;86.69;100872.34;1699242;84;20159;-64
2021/12/13 00:43:26;;;;;;;;;;;;;;;2.32;86.91;100861.16;1699307;84;20157;-66
2021/12/13 00:45:57;;;;;;;;;;;;;;;2.35;87.00;100863.10;1699397;84;20236;-63
2021/12/13 00:48:27;;;;;;;;;;;;;;;2.37;87.10;100858.91;1699596;84;20157;-67
2021/12/13 00:51:25;;;;;;;;;;;;;;;2.39;87.18;100863.20;1684912;85;20230;-63
2021/12/13 00:53:57;;;;;;;;;;;;;;;2.40;87.24;100869.46;1685130;85;20210;-64
2021/12/13 00:57:00;;;;;;;;;;;;;;;2.39;87.07;100869.09;1682979;85;20214;-65
2021/12/13 00:59:40;;;;;;;;;;;;;;;2.41;86.86;100868.47;1685085;85;20454;-65
2021/12/13 01:02:28;;;;;;;;;;;;;;;2.41;86.68;100869.82;1684934;85;20154;-63
2021/12/13 01:04:58;;;;;;;;;;;;;;;2.40;86.63;100874.87;1684721;85;20201;-64
2021/12/13 01:07:59;;;;;;;;;;;;;;;2.40;86.69;100872.17;1707929;84;20243;-63
2021/12/13 01:10:56;;;;;;;;;;;;;;;2.38;86.63;100873.65;1713411;84;20184;-64
2021/12/13 01:13:30;;;;;;;;;;;;;;;2.38;86.61;100864.19;1713417;84;20187;-64
2021/12/13 01:16:12;;;;;;;;;;;;;;;2.39;86.77;100857.78;1713792;84;20218;-65
2021/12/13 01:18:56;;;;;;;;;;;;;;;2.36;86.55;100859.91;1729040;82;20226;-64
2021/12/13 01:21:27;;;;;;;;;;;;;;;2.35;86.70;100854.13;1741357;82;20150;-64
2021/12/13 01:23:50;;;;;;;;;;;;;;;2.34;86.81;100846.52;1727929;82;20160;-64
2021/12/13 01:28:54;;;;;;;;;;;;;;;2.29;86.74;100828.48;1721862;83;20598;-70
2021/12/13 01:31:29;;;;;;;;;;;;;;;2.26;86.82;100814.38;1723098;83;20182;-62
2021/12/13 01:33:57;;;;;;;;;;;;;;;2.25;86.86;100815.38;1723027;83;20234;-67
2021/12/13 01:36:42;;;;;;;;;;;;;;;2.23;86.96;100819.56;1723137;83;20194;-65
2021/12/13 01:39:08;;;;;;;;;;;;;;;2.21;86.97;100813.44;1718535;83;20207;-65
2021/12/13 01:41:42;;;;;;;;;;;;;;;2.25;87.13;100815.38;1722575;83;20580;-64
2021/12/13 01:44:23;;;;;;;;;;;;;;;2.26;87.20;100819.30;1721359;83;20222;-65
2021/12/13 01:46:57;;;;;;;;;;;;;;;2.21;87.27;100823.75;1723195;83;20235;-66
2021/12/13 01:49:31;;;;;;;;;;;;;;;2.22;87.55;100828.17;1723086;83;20258;-64
2021/12/13 01:51:59;;;;;;;;;;;;;;;2.25;87.59;100830.23;1723348;83;20223;-65
2021/12/13 01:54:28;;;;;;;;;;;;;;;2.28;87.72;100829.97;1723126;83;20203;-65
2021/12/13 01:57:11;;;;;;;;;;;;;;;2.31;87.75;100824.30;1721086;82;20252;-65
2021/12/13 02:02:16;;;;;;;;;;;;;;;2.32;87.54;100832.77;1711568;82;20199;-64
2021/12/13 02:04:45;;;;;;;;;;;;;;;2.29;87.58;100828.48;1711498;83;20161;-66
2021/12/13 02:07:13;;;;;;;;;;;;;;;2.29;87.66;100831.69;1711301;82;20187;-65
2021/12/13 02:09:44;;;;;;;;;;;;;;;2.30;87.75;100825.29;1711353;82;20247;-62
2021/12/13 02:12:17;;;;;;;;;;;;;;;2.29;87.69;100812.76;1711680;82;20144;-64
2021/12/13 02:16:56;;;;;;;;;;;;;;;2.30;87.80;100818.53;1717724;83;20186;-64
2021/12/13 02:17:24;;;;;;;;;;;;;;;2.30;87.72;100827.50;1720407;83;20195;-62
2021/12/13 02:19:58;;;;;;;;;;;;;;;2.30;87.73;100818.53;1714473;83;20234;-65
2021/12/13 02:22:35;;;;;;;;;;;;;;;2.33;87.78;100827.72;1713286;84;20255;-64
2021/12/13 02:25:07;;;;;;;;;;;;;;;2.32;87.74;100820.61;1713138;84;20183;-64
2021/12/13 02:27:37;;;;;;;;;;;;;;;2.34;87.86;100825.38;1716664;82;20222;-65
2021/12/13 02:30:14;;;;;;;;;;;;;;;2.34;87.78;100826.23;1713349;84;20183;-64
2021/12/13 02:32:45;;;;;;;;;;;;;;;2.38;87.91;100837.14;1711994;84;20304;-64
2021/12/13 02:35:14;;;;;;;;;;;;;;;2.37;87.63;100831.88;1711473;84;20444;-66
2021/12/13 02:37:43;;;;;;;;;;;;;;;2.34;87.50;100831.64;1684356;85;20232;-64
2021/12/13 02:40:12;;;;;;;;;;;;;;;2.32;87.45;100825.52;1684341;85;20168;-64
2021/12/13 02:42:42;;;;;;;;;;;;;;;2.31;87.61;100832.41;1684441;85;20169;-65
2021/12/13 02:45:26;;;;;;;;;;;;;;;2.32;87.63;100830.06;1684239;84;20224;-66
2021/12/13 02:50:47;;;;;;;;;;;;;;;2.30;87.82;100836.96;1558106;92;20209;-65
2021/12/13 02:53:21;;;;;;;;;;;;;;;2.30;87.75;100830.20;1558413;92;20166;-66
2021/12/13 02:55:50;;;;;;;;;;;;;;;2.30;87.81;100834.75;1558542;92;20201;-66
2021/12/13 02:58:20;;;;;;;;;;;;;;;2.32;87.91;100820.61;1539200;92;20280;-64
2021/12/13 03:01:09;;;;;;;;;;;;;;;2.34;88.01;100824.89;1558286;92;20195;-65
2021/12/13 03:03:41;;;;;;;;;;;;;;;2.37;87.86;100815.64;1558390;92;20221;-64
2021/12/13 03:06:11;;;;;;;;;;;;;;;2.38;87.80;100819.56;1607808;87;20164;-64
2021/12/13 03:08:56;;;;;;;;;;;;;;;2.38;87.85;100811.95;1663205;85;20203;-65
2021/12/13 03:11:29;;;;;;;;;;;;;;;2.39;87.74;100820.42;1674988;84;20161;-64
2021/12/13 03:13:58;;;;;;;;;;;;;;;2.40;87.85;100814.02;1673961;86;20248;-67
2021/12/13 03:16:39;;;;;;;;;;;;;;;2.41;87.88;100806.27;1674823;86;20275;-66
2021/12/13 03:19:11;;;;;;;;;;;;;;;2.42;87.80;100803.44;1675541;85;20156;-66
2021/12/13 03:22:18;;;;;;;;;;;;;;;2.41;87.62;100807.63;1691408;83;20524;-65
2021/12/13 03:24:52;;;;;;;;;;;;;;;2.41;87.67;100807.63;1733403;83;20274;-64
2021/12/13 03:27:31;;;;;;;;;;;;;;;2.43;87.91;100800.23;1733403;83;20241;-69
2021/12/13 03:30:05;;;;;;;;;;;;;;;2.48;88.02;100796.13;1716631;83;20191;-64
2021/12/13 03:32:41;;;;;;;;;;;;;;;2.49;87.68;100786.17;1712793;84;20203;-65
2021/12/13 03:35:19;;;;;;;;;;;;;;;2.50;87.75;100790.09;1712542;83;20270;-65
2021/12/13 03:38:01;;;;;;;;;;;;;;;2.53;87.66;100780.84;1712569;82;20187;-65
2021/12/13 03:40:30;;;;;;;;;;;;;;;2.51;87.54;100783.69;1697703;83;20525;-64
2021/12/13 03:43:00;;;;;;;;;;;;;;;2.50;87.33;100791.94;1693786;84;20168;-68
2021/12/13 03:45:39;;;;;;;;;;;;;;;2.47;87.29;100791.71;1681408;84;20221;-65
2021/12/13 03:48:09;;;;;;;;;;;;;;;2.48;87.35;100784.45;1681953;84;20225;-65
2021/12/13 03:50:41;;;;;;;;;;;;;;;2.46;87.25;100793.20;1683318;84;20172;-64
2021/12/13 03:53:15;;;;;;;;;;;;;;;2.45;87.34;100787.43;1689852;85;20528;-63
2021/12/13 03:55:45;;;;;;;;;;;;;;;2.47;87.40;100793.56;1696230;83;20181;-65
2021/12/13 03:58:16;;;;;;;;;;;;;;;2.51;87.49;100785.03;1720821;83;20602;-64
2021/12/13 04:00:47;;;;;;;;;;;;;;;2.51;87.41;100773.36;1717377;83;20561;-64
2021/12/13 04:03:16;;;;;;;;;;;;;;;2.50;87.32;100752.72;1717139;83;20195;-64
2021/12/13 04:05:46;;;;;;;;;;;;;;;2.51;87.39;100755.29;1717388;84;20199;-65
2021/12/13 04:08:14;;;;;;;;;;;;;;;2.51;87.36;100752.58;1715453;83;20191;-63
2021/12/13 04:10:53;;;;;;;;;;;;;;;2.49;87.32;100753.22;1716808;82;20175;-64
2021/12/13 04:13:26;;;;;;;;;;;;;;;2.49;87.53;100751.01;1717385;84;20211;-65
2021/12/13 04:16:35;;;;;;;;;;;;;;;2.52;87.55;100754.30;1717491;84;20561;-64
2021/12/13 04:19:07;;;;;;;;;;;;;;;2.51;87.52;100753.94;1715671;83;20235;-64
2021/12/13 04:21:52;;;;;;;;;;;;;;;2.45;87.25;100751.78;1704837;84;20780;-65
2021/12/13 04:24:23;;;;;;;;;;;;;;;2.44;87.14;100758.67;1674422;86;20204;-66
2021/12/13 04:26:54;;;;;;;;;;;;;;;2.41;87.23;100763.00;1674930;85;20233;-65
2021/12/13 04:29:29;;;;;;;;;;;;;;;2.43;87.32;100768.64;1674932;86;20181;-65
2021/12/13 04:31:57;;;;;;;;;;;;;;;2.45;87.39;100773.41;1674882;85;20153;-66
2021/12/13 04:34:27;;;;;;;;;;;;;;;2.48;87.47;100776.34;1674950;85;20160;-66
2021/12/13 04:36:59;;;;;;;;;;;;;;;2.50;87.48;100779.77;1678968;84;20308;-65
2021/12/13 04:39:35;;;;;;;;;;;;;;;2.52;87.34;100777.78;1702560;84;20219;-64
2021/12/13 04:42:06;;;;;;;;;;;;;;;2.49;87.22;100776.70;1703074;84;20191;-65
2021/12/13 04:44:40;;;;;;;;;;;;;;;2.48;87.20;100772.28;1677081;84;20239;-62
2021/12/13 04:47:12;;;;;;;;;;;;;;;2.44;87.26;100787.07;1703002;84;20231;-64
2021/12/13 04:49:43;;;;;;;;;;;;;;;2.44;87.43;100800.59;1703005;84;20276;-65
2021/12/13 04:52:14;;;;;;;;;;;;;;;2.39;87.40;100791.53;1702996;84;20267;-66
2021/12/13 04:54:45;;;;;;;;;;;;;;;2.41;87.47;100792.75;1687208;84;20224;-65
2021/12/13 04:57:13;;;;;;;;;;;;;;;2.42;87.44;100802.08;1674518;86;20249;-67
2021/12/13 04:59:41;;;;;;;;;;;;;;;2.41;87.52;100787.34;1675056;86;20161;-65
2021/12/13 05:02:10;;;;;;;;;;;;;;;2.43;87.68;100778.59;1681983;85;20229;-64
2021/12/13 05:04:39;;;;;;;;;;;;;;;2.43;87.72;100786.71;1674843;86;20303;-65
2021/12/13 05:07:07;;;;;;;;;;;;;;;2.42;87.71;100795.81;1674839;86;20152;-65
2021/12/13 05:09:36;;;;;;;;;;;;;;;2.43;87.76;100788.92;1674779;86;20228;-65
2021/12/13 05:12:13;;;;;;;;;;;;;;;2.43;87.77;100794.33;1694998;84;20590;-66
2021/12/13 05:14:50;;;;;;;;;;;;;;;2.44;87.60;100796.53;1703134;84;20506;-66
2021/12/13 05:17:23;;;;;;;;;;;;;;;2.43;87.75;100802.94;1702878;84;20562;-65
2021/12/13 05:19:57;;;;;;;;;;;;;;;2.45;87.85;100796.40;1708836;83;20211;-64
2021/12/13 05:22:32;;;;;;;;;;;;;;;2.42;87.76;100798.52;1714569;84;20246;-64
2021/12/13 05:25:02;;;;;;;;;;;;;;;2.41;87.88;100784.64;1714485;84;20227;-65
2021/12/13 05:27:36;;;;;;;;;;;;;;;2.42;88.00;100782.30;1711763;82;20558;-64
2021/12/13 05:30:13;;;;;;;;;;;;;;;2.45;88.13;100795.55;1688291;84;20216;-64
2021/12/13 05:32:47;;;;;;;;;;;;;;;2.45;88.01;100783.38;1688544;84;20162;-66
2021/12/13 05:35:19;;;;;;;;;;;;;;;2.46;87.80;100799.47;1645728;87;20155;-68
2021/12/13 05:37:50;;;;;;;;;;;;;;;2.39;87.72;100792.89;1621108;87;20158;-65
2021/12/13 05:40:34;;;;;;;;;;;;;;;2.39;87.89;100790.68;1653472;86;20161;-65
2021/12/13 05:43:18;;;;;;;;;;;;;;;2.42;88.02;100791.76;1655129;86;20249;-67
2021/12/13 05:45:52;;;;;;;;;;;;;;;2.46;88.09;100790.49;1663491;86;20166;-65
2021/12/13 05:48:24;;;;;;;;;;;;;;;2.47;88.04;100794.42;1710008;83;20227;-64
2021/12/13 05:50:55;;;;;;;;;;;;;;;2.49;88.11;100792.93;1712311;84;20505;-63
2021/12/13 05:53:32;;;;;;;;;;;;;;;2.50;88.09;100803.61;1714695;83;20284;-66
2021/12/13 05:56:08;;;;;;;;;;;;;;;2.49;87.97;100805.09;1687290;84;20537;-65
2021/12/13 05:58:48;;;;;;;;;;;;;;;2.46;87.93;100817.05;1714691;84;20311;-67
2021/12/13 06:01:27;;;;;;;;;;;;;;;2.48;88.11;100819.61;1714901;83;20238;-67
2021/12/13 06:04:13;;;;;;;;;;;;;;;2.48;88.17;100827.73;1691167;84;20228;-67
2021/12/13 06:06:47;;;;;;;;;;;;;;;2.48;88.21;100823.67;1688532;84;20224;-69
2021/12/13 06:09:42;;;;;;;;;;;;;;;2.46;88.38;100827.86;1688826;84;20243;-68
2021/12/13 06:12:13;;;;;;;;;;;;;;;2.46;88.53;100825.66;1688513;84;20157;-66
2021/12/13 06:14:42;;;;;;;;;;;;;;;2.49;88.72;100829.44;1688778;84;20516;-66
2021/12/13 06:17:16;;;;;;;;;;;;;;;2.47;88.75;100826.02;1688419;84;20288;-66
2021/12/13 06:20:00;;;;;;;;;;;;;;;2.48;88.92;100830.43;1699143;83;20183;-66
2021/12/13 06:22:31;;;;;;;;;;;;;;;2.50;89.09;100827.09;1712548;84;20267;-66
2021/12/13 06:25:07;;;;;;;;;;;;;;;2.52;89.23;100825.97;1712819;84;20203;-66
2021/12/13 06:27:47;;;;;;;;;;;;;;;2.55;89.34;100828.90;1713079;84;20607;-66
2021/12/13 06:30:20;;;;;;;;;;;;;;;2.55;89.39;100831.60;1712870;84;20529;-65
2021/12/13 06:33:11;;;;;;;;;;;;;;;2.54;89.23;100829.39;1712854;83;20195;-66
2021/12/13 06:35:49;;;;;;;;;;;;;;;2.52;89.03;100826.46;1712891;83;20635;-66
2021/12/13 06:38:26;;;;;;;;;;;;;;;2.50;89.04;100825.74;1682679;85;20249;-66
2021/12/13 06:41:08;;;;;;;;;;;;;;;2.49;89.07;100830.30;1682699;85;20233;-65
2021/12/13 06:43:56;;;;;;;;;;;;;;;2.48;88.95;100834.48;1682720;84;20241;-67
2021/12/13 06:46:29;;;;;;;;;;;;;;;2.46;88.90;100834.63;1682787;85;20194;-67
2021/12/13 06:49:12;;;;;;;;;;;;;;;2.46;88.83;100832.41;1682760;85;20218;-64
2021/12/13 06:52:03;;;;;;;;;;;;;;;2.46;88.71;100827.01;1683199;85;20331;-66
2021/12/13 06:55:07;;;;;;;;;;;;;;;2.45;88.53;100819.88;1708142;84;20179;-66
2021/12/13 06:57:39;;;;;;;;;;;;;;;2.43;88.45;100822.73;1712964;84;21094;-64
2021/12/13 07:00:19;;;;;;;;;;;;;;;2.44;88.52;100822.23;1712812;83;20195;-66
2021/12/13 07:02:54;;;;;;;;;;;;;;;2.45;88.44;100822.59;1712592;83;20501;-65
2021/12/13 07:05:25;;;;;;;;;;;;;;;2.43;88.27;100824.08;1712814;84;20191;-65
2021/12/13 07:08:00;;;;;;;;;;;;;;;2.43;88.27;100822.73;1713006;83;20191;-65
2021/12/13 07:10:34;;;;;;;;;;;;;;;2.40;87.88;100827.05;1705785;84;20181;-64
2021/12/13 07:13:11;;;;;;;;;;;;;;;2.39;87.78;100825.34;1683937;84;20204;-64
2021/12/13 07:15:46;;;;;;;;;;;;;;;2.41;87.97;100807.13;1699616;84;20205;-66
2021/12/13 07:18:21;;;;;;;;;;;;;;;2.40;87.71;100795.95;1683860;84;20184;-66
2021/12/13 07:20:56;;;;;;;;;;;;;;;2.40;87.66;100797.80;1682511;83;20471;-65
2021/12/13 07:23:25;;;;;;;;;;;;;;;2.41;87.79;100797.66;1681584;85;20161;-65
2021/12/13 07:25:53;;;;;;;;;;;;;;;2.44;87.76;100791.98;1685868;84;20185;-65
2021/12/13 07:28:33;;;;;;;;;;;;;;;2.44;87.74;100798.75;1702505;84;20200;-67
2021/12/13 07:31:03;;;;;;;;;;;;;;;2.46;87.66;100808.08;1714351;83;20530;-66
2021/12/13 07:33:41;;;;;;;;;;;;;;;2.46;87.53;100791.84;1714656;84;20211;-64
2021/12/13 07:36:24;;;;;;;;;;;;;;;2.47;87.60;100782.25;1714244;84;20187;-65
2021/12/13 07:39:00;;;;;;;;;;;;;;;2.44;87.43;100787.92;1714321;83;20311;-66
2021/12/13 07:41:41;;;;;;;;;;;;;;;2.45;87.51;100768.50;1714706;84;20195;-65
2021/12/13 07:44:15;;;;;;;;;;;;;;;2.50;87.69;100767.59;1711255;84;20234;-65
2021/12/13 07:46:44;;;;;;;;;;;;;;;2.50;87.73;100767.09;1712435;84;20238;-66
2021/12/13 07:49:12;;;;;;;;;;;;;;;2.53;87.72;100778.14;1664426;84;20509;-65
2021/12/13 07:51:48;;;;;;;;;;;;;;;2.54;87.63;100775.80;1710470;83;20204;-64
2021/12/13 07:54:17;;;;;;;;;;;;;;;2.56;87.54;100787.33;1688145;84;20200;-64
2021/12/13 07:56:57;;;;;;;;;;;;;;;2.56;87.50;100791.39;1688561;84;20200;-64
2021/12/13 07:59:31;;;;;;;;;;;;;;;2.54;87.26;100817.72;1688421;84;20161;-66
2021/12/13 08:02:05;;;;;;;;;;;;;;;2.51;87.31;100815.28;1697530;84;20227;-65
2021/12/13 08:04:43;;;;;;;;;;;;;;;2.54;87.43;100813.66;1714149;84;20237;-64
2021/12/13 08:07:19;;;;;;;;;;;;;;;2.56;87.60;100819.79;1714643;84;20247;-64
2021/12/13 08:09:51;;;;;;;;;;;;;;;2.61;87.66;100829.73;1714280;84;20223;-64
2021/12/13 08:12:29;;;;;;;;;;;;;;;2.65;87.65;100831.67;1714380;83;20215;-64
2021/12/13 08:15:16;;;;;;;;;;;;;;;2.68;87.69;100840.87;1714554;84;20262;-64
2021/12/13 08:17:49;;;;;;;;;;;;;;;2.70;87.61;100838.89;1714526;84;20493;-64
2021/12/13 08:20:45;;;;;;;;;;;;;;;2.67;87.46;100835.95;1714636;83;20179;-65
2021/12/13 08:23:20;;;;;;;;;;;;;;;2.66;87.41;100838.80;1715382;84;20186;-65
2021/12/13 08:25:52;;;;;;;;;;;;;;;2.62;87.38;100836.86;1708675;84;20184;-64
2021/12/13 08:28:23;;;;;;;;;;;;;;;2.62;87.27;100838.22;1702884;84;20239;-67
2021/12/13 08:30:53;;;;;;;;;;;;;;;2.58;87.17;100846.20;1701634;84;20251;-65
2021/12/13 08:33:34;;;;;;;;;;;;;;;2.58;87.23;100843.50;1703062;84;20509;-64
2021/12/13 08:36:09;;;;;;;;;;;;;;;2.58;87.27;100840.80;1688527;83;20161;-65
2021/12/13 08:38:52;;;;;;;;;;;;;;;2.59;87.25;100845.71;1674740;86;20196;-63
2021/12/13 08:41:45;;;;;;;;;;;;;;;2.56;87.19;100845.48;1674673;85;20266;-64
2021/12/13 08:44:21;;;;;;;;;;;;;;;2.51;87.12;100838.27;1674774;85;20185;-64
2021/12/13 08:46:58;;;;;;;;;;;;;;;2.49;87.19;100833.00;1675142;85;20471;-64
2021/12/13 08:49:45;;;;;;;;;;;;;;;2.49;87.36;100828.94;1674618;86;20279;-66
2021/12/13 08:52:26;;;;;;;;;;;;;;;2.54;87.31;100844.77;1682908;84;20322;-65
2021/12/13 08:55:01;;;;;;;;;;;;;;;2.50;87.04;100825.74;1702474;84;20180;-64
2021/12/13 08:57:49;;;;;;;;;;;;;;;2.49;87.04;100805.95;1702963;83;20258;-65
2021/12/13 09:00:35;;;;;;;;;;;;;;;2.48;86.99;100823.67;1702360;83;20544;-65
2021/12/13 09:03:15;;;;;;;;;;;;;;;2.50;87.26;100818.48;1702842;84;20272;-63
2021/12/13 09:06:04;;;;;;;;;;;;;;;2.53;87.52;100815.51;1703005;83;20191;-65
2021/12/13 09:08:43;;;;;;;;;;;;;;;2.58;87.65;100811.54;1700914;83;20188;-64
2021/12/13 09:11:25;;;;;;;;;;;;;;;2.60;87.61;100795.56;1681085;85;20145;-64
2021/12/13 09:14:01;;;;;;;;;;;;;;;2.63;87.52;100784.97;1674830;86;20208;-66
2021/12/13 09:17:07;;;;;;;;;;;;;;;2.65;87.54;100777.08;1674702;85;20471;-66
2021/12/13 09:19:50;;;;;;;;;;;;;;;2.65;87.50;100770.31;1628551;87;20594;-67
2021/12/13 09:22:37;;;;;;;;;;;;;;;2.66;87.43;100788.75;1628739;87;20229;-65
2021/12/13 09:25:13;;;;;;;;;;;;;;;2.67;87.06;100796.73;1615633;89;20203;-66
2021/12/13 09:27:59;;;;;;;;;;;;;;;2.65;86.97;100801.42;1603780;89;20205;-66
2021/12/13 09:30:54;;;;;;;;;;;;;;;2.66;87.09;100798.22;1631638;86;20182;-63
2021/12/13 09:33:31;;;;;;;;;;;;;;;2.69;87.13;100801.50;1660802;86;20289;-64
2021/12/13 09:36:14;;;;;;;;;;;;;;;2.69;86.96;100810.97;1661007;86;20492;-66
2021/12/13 09:38:53;;;;;;;;;;;;;;;2.70;87.05;100807.77;1705902;84;20501;-64
2021/12/13 09:41:31;;;;;;;;;;;;;;;2.68;87.23;100806.55;1713558;84;20524;-69
2021/12/13 09:44:13;;;;;;;;;;;;;;;2.69;87.29;100804.70;1713419;84;20261;-65
2021/12/13 09:46:52;;;;;;;;;;;;;;;2.64;87.14;100803.77;1713600;84;20230;-65
2021/12/13 09:49:39;;;;;;;;;;;;;;;2.64;87.26;100788.03;1713404;84;20610;-66
2021/12/13 09:52:28;;;;;;;;;;;;;;;2.65;87.20;100781.12;1713401;84;20196;-64
2021/12/13 09:55:18;;;;;;;;;;;;;;;2.63;87.13;100772.80;1713372;84;20352;-64
2021/12/13 09:57:52;;;;;;;;;;;;;;;2.64;87.47;100781.27;1688318;85;20164;-63
2021/12/13 10:00:24;;;;;;;;;;;;;;;2.71;87.63;100787.34;1707704;84;20513;-64
2021/12/13 10:02:56;;;;;;;;;;;;;;;2.70;87.32;100800.52;1713565;84;20187;-65
2021/12/13 10:05:30;;;;;;;;;;;;;;;2.69;87.04;100803.36;1713196;84;20215;-64
2021/12/13 10:08:13;;;;;;;;;;;;;;;2.67;86.94;100809.40;1713267;84;20253;-66
2021/12/13 10:10:51;;;;;;;;;;;;;;;2.67;87.03;100792.67;1713067;84;20183;-64
2021/12/13 10:13:29;;;;;;;;;;;;;;;2.69;87.14;100786.63;1713378;84;20199;-65
2021/12/13 10:16:03;;;;;;;;;;;;;;;2.70;87.04;100790.19;1713364;84;20546;-65
2021/12/13 10:18:37;;;;;;;;;;;;;;;2.71;87.07;100792.75;1713354;84;20509;-65
2021/12/13 10:21:08;;;;;;;;;;;;;;;2.73;87.06;100792.12;1718699;83;20229;-65
2021/12/13 10:23:38;;;;;;;;;;;;;;;2.75;86.99;100791.98;1728502;83;20269;-65
2021/12/13 10:26:11;;;;;;;;;;;;;;;2.75;86.93;100799.60;1725136;83;20250;-66
2021/12/13 10:28:45;;;;;;;;;;;;;;;2.75;87.04;100802.30;1713284;83;20225;-66
2021/12/13 10:31:18;;;;;;;;;;;;;;;2.75;87.03;100794.69;1699509;84;20237;-65
2021/12/13 10:33:49;;;;;;;;;;;;;;;2.74;86.96;100795.19;1699334;84;20502;-64
2021/12/13 10:36:21;;;;;;;;;;;;;;;2.71;86.87;100803.58;1699732;84;20483;-64
2021/12/13 10:38:54;;;;;;;;;;;;;;;2.69;86.76;100802.00;1699822;84;20158;-65
2021/12/13 10:41:30;;;;;;;;;;;;;;;2.64;86.63;100796.14;1699427;84;20178;-65
2021/12/13 10:44:05;;;;;;;;;;;;;;;2.62;86.76;100800.34;1699316;84;20546;-66
2021/12/13 10:46:38;;;;;;;;;;;;;;;2.62;86.92;100803.05;1699558;84;20185;-64
2021/12/13 10:49:24;;;;;;;;;;;;;;;2.64;87.11;100805.12;1699516;84;20162;-64
2021/12/13 10:51:58;;;;;;;;;;;;;;;2.66;87.09;100797.72;1699562;83;20178;-65
2021/12/13 10:54:35;;;;;;;;;;;;;;;2.66;87.12;100795.52;1699671;84;20165;-65
2021/12/13 10:57:25;;;;;;;;;;;;;;;2.65;87.22;100789.25;1699599;84;20498;-64
2021/12/13 11:00:04;;;;;;;;;;;;;;;2.64;87.32;100785.33;1699462;84;20234;-64
2021/12/13 11:02:35;;;;;;;;;;;;;;;2.64;87.47;100785.33;1699466;84;20273;-65
2021/12/13 11:05:19;;;;;;;;;;;;;;;2.64;87.47;100781.27;1699463;84;20181;-66
2021/12/13 11:07:50;;;;;;;;;;;;;;;2.65;87.61;100781.12;1699734;84;20146;-65
2021/12/13 11:10:22;;;;;;;;;;;;;;;2.67;87.62;100780.50;1699348;84;20165;-66
2021/12/13 11:12:56;;;;;;;;;;;;;;;2.69;87.62;100777.66;1699555;84;20153;-65
2021/12/13 11:15:32;;;;;;;;;;;;;;;2.70;87.73;100775.31;1699415;84;20273;-65
2021/12/13 11:18:01;;;;;;;;;;;;;;;2.73;87.71;100778.59;1699508;84;20254;-65
2021/12/13 11:20:35;;;;;;;;;;;;;;;2.74;87.69;100763.22;1699252;84;20178;-67
2021/12/13 11:23:03;;;;;;;;;;;;;;;2.74;87.59;100761.36;1684844;85;20273;-65
2021/12/13 11:25:38;;;;;;;;;;;;;;;2.74;87.47;100758.66;1684840;85;20263;-67
2021/12/13 11:28:06;;;;;;;;;;;;;;;2.73;87.32;100757.45;1673634;85;20217;-65
2021/12/13 11:30:37;;;;;;;;;;;;;;;2.68;87.15;100756.51;1665183;86;20167;-64
2021/12/13 11:33:21;;;;;;;;;;;;;;;2.67;87.14;100751.23;1665155;86;20155;-65
2021/12/13 11:36:09;;;;;;;;;;;;;;;2.62;87.10;100754.85;1665165;85;20158;-66
2021/12/13 11:39:14;;;;;;;;;;;;;;;2.55;87.07;100752.67;1665333;84;20567;-65
2021/12/13 11:42:06;;;;;;;;;;;;;;;2.61;87.29;100748.59;1665066;84;20477;-64
2021/12/13 11:44:52;;;;;;;;;;;;;;;2.63;87.64;100752.01;1593241;89;20170;-66
2021/12/13 11:47:42;;;;;;;;;;;;;;;2.59;87.54;100753.24;1651991;86;20234;-67
2021/12/13 11:50:31;;;;;;;;;;;;;;;2.59;87.44;100755.09;1665123;86;20266;-66
2021/12/13 11:53:32;;;;;;;;;;;;;;;2.56;87.40;100765.69;1665243;84;20238;-65
2021/12/13 11:56:07;;;;;;;;;;;;;;;2.55;87.45;100760.78;1665450;85;20278;-66
2021/12/13 11:58:58;;;;;;;;;;;;;;;2.55;87.15;100770.74;1665477;84;20251;-66
2021/12/13 12:01:48;;;;;;;;;;;;;;;2.53;87.21;100772.73;1665045;86;20248;-65
2021/12/13 12:04:50;;;;;;;;;;;;;;;2.57;87.42;100774.17;1665110;86;20171;-65
2021/12/13 12:07:57;;;;;;;;;;;;;;;2.60;87.50;100768.52;1665340;84;20218;-65
2021/12/13 12:10:35;;;;;;;;;;;;;;;2.63;87.52;100765.53;1665093;86;20171;-65
2021/12/13 12:13:08;;;;;;;;;;;;;;;2.61;87.39;100770.23;1665282;84;20159;-65
2021/12/13 12:15:39;;;;;;;;;;;;;;;2.57;87.27;100780.92;1665264;86;20530;-65
2021/12/13 12:18:15;;;;;;;;;;;;;;;2.58;87.32;100790.75;1665166;86;20461;-65
2021/12/13 12:20:46;;;;;;;;;;;;;;;2.59;87.20;100791.11;1665158;84;20194;-64
2021/12/13 12:23:29;;;;;;;;;;;;;;;2.57;87.09;100805.77;1618602;87;20176;-64
2021/12/13 12:26:00;;;;;;;;;;;;;;;2.55;86.97;100795.09;1644876;87;20155;-67
2021/12/13 12:28:32;;;;;;;;;;;;;;;2.57;87.11;100802.56;1660934;86;20207;-63
2021/12/13 12:31:01;;;;;;;;;;;;;;;2.61;87.13;100795.92;1658207;85;20457;-64
2021/12/13 12:33:33;;;;;;;;;;;;;;;2.59;86.93;100777.59;1664904;86;20511;-63
2021/12/13 12:36:11;;;;;;;;;;;;;;;2.56;86.97;100773.81;1665338;85;20267;-64
2021/12/13 12:39:05;;;;;;;;;;;;;;;2.54;87.15;100777.14;1651085;86;20215;-64
2021/12/13 12:42:03;;;;;;;;;;;;;;;2.57;87.36;100786.34;1659543;85;20158;-66
2021/12/13 12:44:41;;;;;;;;;;;;;;;2.57;87.36;100801.22;1649207;85;20482;-64
2021/12/13 12:47:10;;;;;;;;;;;;;;;2.62;87.44;100796.78;1664541;86;20692;-64
2021/12/13 12:49:40;;;;;;;;;;;;;;;2.66;87.43;100814.45;1659853;86;20162;-64
2021/12/13 12:52:10;;;;;;;;;;;;;;;2.68;87.43;100823.28;1665503;85;20175;-65
2021/12/13 12:54:39;;;;;;;;;;;;;;;2.70;87.47;100819.95;1665194;86;20154;-64
2021/12/13 12:57:07;;;;;;;;;;;;;;;2.72;87.32;100817.96;1664132;86;20239;-63
2021/12/13 12:59:38;;;;;;;;;;;;;;;2.71;87.16;100806.78;1660457;85;20226;-63
2021/12/13 13:02:11;;;;;;;;;;;;;;;2.73;87.13;100804.80;1660307;85;20194;-68
2021/12/13 13:04:53;;;;;;;;;;;;;;;2.73;86.91;100808.35;1665397;86;20486;-64
2021/12/13 13:07:28;;;;;;;;;;;;;;;2.76;87.05;100817.55;1659897;86;20198;-65
2021/12/13 13:10:51;;;;;;;;;;;;;;;2.71;86.63;100825.72;1661129;85;20287;-65
2021/12/13 13:12:37;;;;;;;;;;;;;;;2.68;86.93;100823.28;1652315;85;20262;-65
2021/12/13 13:15:10;;;;;;;;;;;;;;;2.68;86.86;100814.67;1660514;85;20190;-65
2021/12/13 13:17:43;;;;;;;;;;;;;;;2.66;86.87;100805.84;1665174;85;20222;-66
2021/12/13 13:20:16;;;;;;;;;;;;;;;2.70;86.99;100809.13;1660854;86;20215;-67
2021/12/13 13:22:45;;;;;;;;;;;;;;;2.72;86.98;100836.41;1676705;84;20159;-65
2021/12/13 13:25:19;;;;;;;;;;;;;;;2.75;87.09;100817.19;1681756;85;20469;-66
2021/12/13 13:27:48;;;;;;;;;;;;;;;2.77;87.04;100821.11;1681328;85;20151;-65
2021/12/13 13:30:26;;;;;;;;;;;;;;;2.79;87.09;100814.56;1681800;84;20183;-66
2021/12/13 13:32:55;;;;;;;;;;;;;;;2.79;86.90;100821.83;1681624;84;20158;-65
2021/12/13 13:35:25;;;;;;;;;;;;;;;2.76;86.89;100844.61;1681846;84;20483;-64
2021/12/13 13:37:57;;;;;;;;;;;;;;;2.75;86.90;100856.42;1680910;84;20166;-66
2021/12/13 13:40:27;;;;;;;;;;;;;;;2.77;87.11;100856.28;1681816;84;20154;-64
2021/12/13 13:42:59;;;;;;;;;;;;;;;2.77;87.21;100839.55;1681823;84;20190;-64
2021/12/13 13:45:30;;;;;;;;;;;;;;;2.74;86.91;100804.66;1681550;84;20289;-66